Time;durP1;ratioP1;P1;durP2;ratioP2;P2;SDS_P1;SDS_P2;PMS_P1;PMS_P2;Temp;Humidity;BMP_temperature;BMP_pressure;BME280_temperature;BME280_humidity;BME280_pressure;Samples;Min_cycle;Max_cycle;Signal;HPM_P1;HPM_P2
2021/09/18 00:02:00;;;;;;;45.95;33.50;;;;;;;;;;5023970;28;20617;-76
2021/09/18 00:04:26;;;;;;;45.60;32.50;;;;;;;;;;5025531;28;20213;-76
2021/09/18 00:06:51;;;;;;;40.92;30.73;;;;;;;;;;5030371;28;20250;-75
2021/09/18 00:09:16;;;;;;;49.58;32.25;;;;;;;;;;5021696;28;20615;-75
2021/09/18 00:11:42;;;;;;;39.95;30.48;;;;;;;;;;5029723;28;20208;-75
2021/09/18 00:14:07;;;;;;;40.25;30.75;;;;;;;;;;5023111;28;20196;-76
2021/09/18 00:16:32;;;;;;;40.95;30.50;;;;;;;;;;5028976;28;20252;-75
2021/09/18 00:18:58;;;;;;;37.88;29.35;;;;;;;;;;5024768;28;20186;-76
2021/09/18 00:21:23;;;;;;;37.15;29.30;;;;;;;;;;5031241;28;20557;-76
2021/09/18 00:23:49;;;;;;;39.17;29.48;;;;;;;;;;5020721;28;20204;-74
2021/09/18 00:26:15;;;;;;;38.00;27.52;;;;;;;;;;5033029;28;20250;-75
2021/09/18 00:28:40;;;;;;;43.70;31.05;;;;;;;;;;5021212;28;20606;-75
2021/09/18 00:31:06;;;;;;;38.75;28.52;;;;;;;;;;5028703;28;20209;-75
2021/09/18 00:33:32;;;;;;;43.28;31.45;;;;;;;;;;5028140;28;20182;-75
2021/09/18 00:35:57;;;;;;;40.13;30.27;;;;;;;;;;5019745;28;20277;-76
2021/09/18 00:38:22;;;;;;;38.75;28.63;;;;;;;;;;5028588;28;20294;-76
2021/09/18 00:40:48;;;;;;;37.63;28.40;;;;;;;;;;5023318;28;20180;-76
2021/09/18 00:43:13;;;;;;;39.05;28.75;;;;;;;;;;5030108;28;20185;-76
2021/09/18 00:45:38;;;;;;;37.78;27.63;;;;;;;;;;5022064;28;20726;-76
2021/09/18 00:48:04;;;;;;;37.95;27.83;;;;;;;;;;5028788;28;20185;-76
2021/09/18 00:50:29;;;;;;;35.70;27.58;;;;;;;;;;5021723;28;20323;-76
2021/09/18 00:52:55;;;;;;;41.30;27.83;;;;;;;;;;5030189;28;20196;-76
2021/09/18 00:55:21;;;;;;;35.53;26.38;;;;;;;;;;5021797;28;20237;-76
2021/09/18 00:57:46;;;;;;;34.05;26.33;;;;;;;;;;5031655;28;20213;-76
2021/09/18 01:00:16;;;;;;;33.70;25.45;;;;;;;;;;5018991;28;20252;-76
2021/09/18 01:02:41;;;;;;;32.50;24.73;;;;;;;;;;5030397;28;20721;-74
2021/09/18 01:05:08;;;;;;;33.05;25.17;;;;;;;;;;5027878;28;20186;-74
2021/09/18 01:07:35;;;;;;;34.05;23.98;;;;;;;;;;5021799;28;20201;-74
2021/09/18 01:10:01;;;;;;;30.30;23.83;;;;;;;;;;5030096;28;20719;-76
2021/09/18 01:12:26;;;;;;;30.60;24.58;;;;;;;;;;5023114;28;20218;-74
2021/09/18 01:14:52;;;;;;;30.35;24.00;;;;;;;;;;5029266;28;20658;-75
2021/09/18 01:17:17;;;;;;;29.67;22.88;;;;;;;;;;5022561;28;20193;-75
2021/09/18 01:19:43;;;;;;;28.75;23.13;;;;;;;;;;5029133;28;20668;-76
2021/09/18 01:22:10;;;;;;;29.92;22.33;;;;;;;;;;5021714;28;20638;-75
2021/09/18 01:24:37;;;;;;;31.25;23.75;;;;;;;;;;5031862;28;20181;-75
2021/09/18 01:27:03;;;;;;;27.65;21.80;;;;;;;;;;5022476;28;20291;-75
2021/09/18 01:29:28;;;;;;;33.15;22.83;;;;;;;;;;5028604;28;20280;-75
2021/09/18 01:31:54;;;;;;;27.15;20.73;;;;;;;;;;5022987;28;21607;-75
2021/09/18 01:34:21;;;;;;;27.75;21.02;;;;;;;;;;5029282;28;20181;-75
2021/09/18 01:36:48;;;;;;;26.60;20.23;;;;;;;;;;5029361;28;20653;-75
2021/09/18 01:39:14;;;;;;;27.65;20.33;;;;;;;;;;5022010;28;20259;-75
2021/09/18 01:41:42;;;;;;;27.00;20.17;;;;;;;;;;5026032;28;20201;-75
2021/09/18 01:44:07;;;;;;;22.88;19.90;;;;;;;;;;5022003;28;20582;-75
2021/09/18 01:46:33;;;;;;;25.50;19.33;;;;;;;;;;5027288;28;20202;-75
2021/09/18 01:48:58;;;;;;;31.05;20.98;;;;;;;;;;5025193;28;20556;-76
2021/09/18 01:51:24;;;;;;;27.45;20.63;;;;;;;;;;5028160;28;20210;-75
2021/09/18 01:53:49;;;;;;;27.67;18.98;;;;;;;;;;5021602;28;20541;-75
2021/09/18 01:56:15;;;;;;;26.40;20.27;;;;;;;;;;5028845;28;20754;-75
2021/09/18 01:58:40;;;;;;;23.25;17.77;;;;;;;;;;5019557;28;20233;-75
2021/09/18 02:01:06;;;;;;;25.05;18.83;;;;;;;;;;5029350;28;20182;-75
2021/09/18 02:03:32;;;;;;;24.27;17.75;;;;;;;;;;5022517;28;20181;-75
2021/09/18 02:05:57;;;;;;;24.58;19.08;;;;;;;;;;5032091;28;20208;-75
2021/09/18 02:08:23;;;;;;;25.50;18.67;;;;;;;;;;5033663;28;20220;-75
2021/09/18 02:10:50;;;;;;;25.63;18.40;;;;;;;;;;5024923;28;20296;-76
2021/09/18 02:13:16;;;;;;;22.88;18.85;;;;;;;;;;5032763;28;20190;-75
2021/09/18 02:15:42;;;;;;;26.60;18.38;;;;;;;;;;5024889;28;20204;-75
2021/09/18 02:18:08;;;;;;;22.23;17.88;;;;;;;;;;5032611;28;20578;-76
2021/09/18 02:20:36;;;;;;;23.23;17.20;;;;;;;;;;5023923;28;20285;-76
2021/09/18 02:23:04;;;;;;;22.25;17.40;;;;;;;;;;5032079;28;20658;-76
2021/09/18 02:25:29;;;;;;;22.27;16.67;;;;;;;;;;5023869;28;20187;-76
2021/09/18 02:27:55;;;;;;;18.30;15.15;;;;;;;;;;5035350;28;20181;-76
2021/09/18 02:30:27;;;;;;;18.42;14.98;;;;;;;;;;5022019;28;20923;-75
2021/09/18 02:32:54;;;;;;;21.55;16.73;;;;;;;;;;5031971;28;20182;-76
2021/09/18 02:35:22;;;;;;;25.13;16.42;;;;;;;;;;5023905;28;20212;-76
2021/09/18 02:37:49;;;;;;;24.85;16.23;;;;;;;;;;5032132;28;20240;-76
2021/09/18 02:40:15;;;;;;;19.48;14.93;;;;;;;;;;5033188;28;20186;-76
2021/09/18 02:42:45;;;;;;;20.52;15.43;;;;;;;;;;5023996;28;20201;-76
2021/09/18 02:45:11;;;;;;;20.55;15.02;;;;;;;;;;5031441;28;20203;-76
2021/09/18 02:47:37;;;;;;;20.23;15.60;;;;;;;;;;5024511;28;21451;-76
2021/09/18 02:50:04;;;;;;;18.58;14.45;;;;;;;;;;5030887;28;20193;-75
2021/09/18 02:52:30;;;;;;;20.17;14.20;;;;;;;;;;5021962;28;20215;-75
2021/09/18 02:54:56;;;;;;;23.65;14.95;;;;;;;;;;5031984;28;20251;-75
2021/09/18 02:57:21;;;;;;;19.88;14.63;;;;;;;;;;5024640;28;20668;-76
2021/09/18 02:59:46;;;;;;;19.42;14.63;;;;;;;;;;5032452;28;20228;-76
2021/09/18 03:02:12;;;;;;;21.38;14.82;;;;;;;;;;5023979;28;20188;-76
2021/09/18 03:04:37;;;;;;;21.13;13.60;;;;;;;;;;5031080;28;20194;-75
2021/09/18 03:07:03;;;;;;;18.13;13.40;;;;;;;;;;5025232;28;20663;-75
2021/09/18 03:09:28;;;;;;;18.83;13.35;;;;;;;;;;5032008;28;20184;-76
2021/09/18 03:11:54;;;;;;;22.08;14.35;;;;;;;;;;5030176;28;20205;-76
2021/09/18 03:14:19;;;;;;;21.77;13.95;;;;;;;;;;5024156;28;20209;-76
2021/09/18 03:16:44;;;;;;;19.27;13.77;;;;;;;;;;5032305;28;20280;-76
2021/09/18 03:19:10;;;;;;;19.98;13.30;;;;;;;;;;5019261;28;20201;-76
2021/09/18 03:21:35;;;;;;;17.67;13.73;;;;;;;;;;5032803;28;20197;-76
2021/09/18 03:24:01;;;;;;;16.52;13.45;;;;;;;;;;5020475;28;20193;-76
2021/09/18 03:26:26;;;;;;;15.35;13.07;;;;;;;;;;5028387;28;20277;-76
2021/09/18 03:28:52;;;;;;;15.50;13.00;;;;;;;;;;5021367;28;20198;-76
2021/09/18 03:31:17;;;;;;;17.08;13.65;;;;;;;;;;5031494;28;20246;-76
2021/09/18 03:33:44;;;;;;;17.17;13.32;;;;;;;;;;5021040;28;20241;-76
2021/09/18 03:36:09;;;;;;;18.85;13.48;;;;;;;;;;5031041;28;20177;-76
2021/09/18 03:38:35;;;;;;;23.50;14.38;;;;;;;;;;5023838;28;20196;-76
2021/09/18 03:41:00;;;;;;;20.08;14.25;;;;;;;;;;5031050;28;20185;-76
2021/09/18 03:43:25;;;;;;;19.40;13.55;;;;;;;;;;5029157;28;20247;-76
2021/09/18 03:45:52;;;;;;;18.50;13.68;;;;;;;;;;5022762;28;20185;-76
2021/09/18 03:48:17;;;;;;;20.58;13.98;;;;;;;;;;5032075;28;20200;-76
2021/09/18 03:50:43;;;;;;;16.65;13.43;;;;;;;;;;5022484;28;20186;-76
2021/09/18 03:53:08;;;;;;;15.82;12.80;;;;;;;;;;5032759;28;20186;-76
2021/09/18 03:55:33;;;;;;;21.58;14.00;;;;;;;;;;5022564;28;20258;-76
2021/09/18 03:57:59;;;;;;;18.73;14.00;;;;;;;;;;5028420;28;20206;-76
2021/09/18 04:00:24;;;;;;;18.10;12.82;;;;;;;;;;5008546;28;20237;-76
2021/09/18 04:02:49;;;;;;;17.60;13.02;;;;;;;;;;5033525;28;20277;-76
2021/09/18 04:05:15;;;;;;;19.75;13.45;;;;;;;;;;5021726;28;20229;-76
2021/09/18 04:07:40;;;;;;;16.90;13.38;;;;;;;;;;5031052;28;20197;-76
2021/09/18 04:10:06;;;;;;;17.48;13.93;;;;;;;;;;5029424;28;20186;-76
2021/09/18 04:12:31;;;;;;;18.08;12.85;;;;;;;;;;5027003;28;20217;-76
2021/09/18 04:14:57;;;;;;;17.23;13.00;;;;;;;;;;5029481;28;20277;-76
2021/09/18 04:17:22;;;;;;;17.73;12.68;;;;;;;;;;5021091;28;20224;-76
2021/09/18 04:19:47;;;;;;;18.50;13.52;;;;;;;;;;5030445;28;20200;-75
2021/09/18 04:22:13;;;;;;;18.02;13.20;;;;;;;;;;5020416;28;20836;-75
2021/09/18 04:24:38;;;;;;;22.33;14.90;;;;;;;;;;5030930;28;20200;-76
2021/09/18 04:27:04;;;;;;;23.60;15.73;;;;;;;;;;5020601;28;20190;-76
2021/09/18 04:29:31;;;;;;;20.75;14.95;;;;;;;;;;5028009;28;20301;-76
2021/09/18 04:31:56;;;;;;;24.17;15.73;;;;;;;;;;5021954;28;20688;-76
2021/09/18 04:34:21;;;;;;;22.63;15.32;;;;;;;;;;5031521;28;20197;-76
2021/09/18 04:36:47;;;;;;;21.17;15.80;;;;;;;;;;5020969;28;20593;-76
2021/09/18 04:39:13;;;;;;;21.80;15.15;;;;;;;;;;5031247;28;20285;-77
2021/09/18 04:41:39;;;;;;;19.35;15.38;;;;;;;;;;5029389;28;20637;-75
2021/09/18 04:44:05;;;;;;;21.20;15.98;;;;;;;;;;5022042;28;20202;-75
2021/09/18 04:46:30;;;;;;;21.05;14.80;;;;;;;;;;5031450;28;20557;-76
2021/09/18 04:48:55;;;;;;;19.85;13.95;;;;;;;;;;5022659;28;20645;-76
2021/09/18 04:51:21;;;;;;;22.00;16.17;;;;;;;;;;5032589;28;20336;-76
2021/09/18 04:53:46;;;;;;;22.65;15.57;;;;;;;;;;5019082;28;20244;-77
2021/09/18 04:56:11;;;;;;;19.23;15.05;;;;;;;;;;5026537;28;20186;-75
2021/09/18 04:58:37;;;;;;;19.80;14.10;;;;;;;;;;5018247;28;20241;-77
2021/09/18 05:01:02;;;;;;;19.52;14.40;;;;;;;;;;5027532;28;20186;-75
2021/09/18 05:03:28;;;;;;;18.73;13.90;;;;;;;;;;5022748;28;20190;-76
2021/09/18 05:05:53;;;;;;;20.60;14.35;;;;;;;;;;5028426;28;20236;-75
2021/09/18 05:08:18;;;;;;;18.85;13.63;;;;;;;;;;5028640;28;20650;-77
2021/09/18 05:10:44;;;;;;;16.38;13.50;;;;;;;;;;5022459;28;20189;-75
2021/09/18 05:13:09;;;;;;;19.88;14.90;;;;;;;;;;5029057;28;20201;-76
2021/09/18 05:15:34;;;;;;;19.73;13.40;;;;;;;;;;5023423;28;20272;-75
2021/09/18 05:18:00;;;;;;;21.40;14.43;;;;;;;;;;5030578;28;20229;-76
2021/09/18 05:20:25;;;;;;;18.63;14.18;;;;;;;;;;5024338;28;20247;-76
2021/09/18 05:22:51;;;;;;;21.38;14.13;;;;;;;;;;5029647;28;20251;-75
2021/09/18 05:25:16;;;;;;;29.63;14.70;;;;;;;;;;5023787;28;20197;-75
2021/09/18 05:27:42;;;;;;;17.55;13.70;;;;;;;;;;5031615;28;20521;-75
2021/09/18 05:30:09;;;;;;;17.00;13.98;;;;;;;;;;5021294;28;20186;-76
2021/09/18 05:32:34;;;;;;;18.75;13.82;;;;;;;;;;5025436;28;20214;-75
2021/09/18 05:35:00;;;;;;;22.20;15.23;;;;;;;;;;5019417;28;20511;-75
2021/09/18 05:37:26;;;;;;;22.40;15.02;;;;;;;;;;5027483;28;20304;-76
2021/09/18 05:39:51;;;;;;;16.98;13.95;;;;;;;;;;5028478;28;20284;-76
2021/09/18 05:42:17;;;;;;;21.92;14.85;;;;;;;;;;5022738;28;20189;-75
2021/09/18 05:44:42;;;;;;;21.55;14.05;;;;;;;;;;5030809;28;20559;-75
2021/09/18 05:47:08;;;;;;;20.60;14.38;;;;;;;;;;5023392;28;20608;-76
2021/09/18 05:49:33;;;;;;;18.60;14.05;;;;;;;;;;5034266;28;20704;-76
2021/09/18 05:51:59;;;;;;;17.98;14.07;;;;;;;;;;5024627;28;20205;-75
2021/09/18 05:54:27;;;;;;;19.33;14.52;;;;;;;;;;5032532;28;20196;-76
2021/09/18 05:56:52;;;;;;;24.98;14.93;;;;;;;;;;5024945;28;20185;-76
2021/09/18 05:59:17;;;;;;;18.58;14.38;;;;;;;;;;5032040;28;20232;-75
2021/09/18 06:01:43;;;;;;;20.98;14.60;;;;;;;;;;5025609;28;20212;-76
2021/09/18 06:04:08;;;;;;;21.45;14.32;;;;;;;;;;5027710;28;20194;-75
2021/09/18 06:06:33;;;;;;;20.00;14.05;;;;;;;;;;5027604;28;20539;-76
2021/09/18 06:08:59;;;;;;;18.83;14.45;;;;;;;;;;5026718;28;20201;-76
2021/09/18 06:11:24;;;;;;;18.10;14.02;;;;;;;;;;5034052;28;20240;-76
2021/09/18 06:13:49;;;;;;;20.50;14.75;;;;;;;;;;5022158;28;20192;-75
2021/09/18 06:16:15;;;;;;;18.52;14.13;;;;;;;;;;5032927;28;20185;-75
2021/09/18 06:18:41;;;;;;;21.00;14.60;;;;;;;;;;5021133;28;20193;-76
2021/09/18 06:21:08;;;;;;;19.45;14.70;;;;;;;;;;5031906;28;20178;-76
2021/09/18 06:23:36;;;;;;;20.15;15.05;;;;;;;;;;5021726;28;20193;-75
2021/09/18 06:26:01;;;;;;;21.33;15.13;;;;;;;;;;5029992;28;20186;-76
2021/09/18 06:28:26;;;;;;;20.55;15.07;;;;;;;;;;5020391;28;20208;-76
2021/09/18 06:30:51;;;;;;;16.95;14.40;;;;;;;;;;5032484;28;20534;-76
2021/09/18 06:33:18;;;;;;;20.63;15.90;;;;;;;;;;5023845;28;20193;-76
2021/09/18 06:35:43;;;;;;;23.38;16.50;;;;;;;;;;5033640;28;20174;-76
2021/09/18 06:38:10;;;;;;;21.63;15.95;;;;;;;;;;5031812;28;20197;-76
2021/09/18 06:40:36;;;;;;;21.20;16.08;;;;;;;;;;5021477;28;20282;-76
2021/09/18 06:43:01;;;;;;;22.10;16.98;;;;;;;;;;5030009;28;20332;-77
2021/09/18 06:45:27;;;;;;;23.05;17.70;;;;;;;;;;5022369;28;20595;-76
2021/09/18 06:47:56;;;;;;;30.83;18.67;;;;;;;;;;5032368;28;20187;-76
2021/09/18 06:50:21;;;;;;;21.27;17.50;;;;;;;;;;5023718;28;20396;-77
2021/09/18 06:52:47;;;;;;;21.42;17.13;;;;;;;;;;5031369;28;20295;-77
2021/09/18 06:55:12;;;;;;;24.27;18.02;;;;;;;;;;5023810;28;20727;-76
2021/09/18 06:57:38;;;;;;;23.20;18.35;;;;;;;;;;5030514;28;20538;-76
2021/09/18 07:00:05;;;;;;;22.75;17.67;;;;;;;;;;5025222;28;20572;-76
2021/09/18 07:02:31;;;;;;;23.08;16.90;;;;;;;;;;5032705;28;20190;-77
2021/09/18 07:04:56;;;;;;;23.40;15.25;;;;;;;;;;5023123;28;20566;-77
2021/09/18 07:07:21;;;;;;;20.25;15.70;;;;;;;;;;5031306;28;20239;-77
2021/09/18 07:09:47;;;;;;;17.10;14.77;;;;;;;;;;5033892;28;20319;-77
2021/09/18 07:12:12;;;;;;;19.35;14.27;;;;;;;;;;5028529;28;20210;-76
2021/09/18 07:14:38;;;;;;;16.60;13.63;;;;;;;;;;5032019;28;20258;-77
2021/09/18 07:17:03;;;;;;;18.98;14.93;;;;;;;;;;5028046;28;20194;-76
2021/09/18 07:19:28;;;;;;;16.65;14.07;;;;;;;;;;5029806;28;20205;-76
2021/09/18 07:21:54;;;;;;;19.48;13.75;;;;;;;;;;5029059;28;20186;-77
2021/09/18 07:24:19;;;;;;;16.65;13.13;;;;;;;;;;5034834;28;20668;-78
2021/09/18 07:26:45;;;;;;;16.70;12.00;;;;;;;;;;5024509;28;20201;-77
2021/09/18 07:29:10;;;;;;;15.25;11.82;;;;;;;;;;5031886;28;20183;-77
2021/09/18 07:31:36;;;;;;;13.35;11.25;;;;;;;;;;5022091;28;20268;-77
2021/09/18 07:34:01;;;;;;;10.30;9.30;;;;;;;;;;5031314;28;20666;-77
2021/09/18 07:36:26;;;;;;;12.40;9.90;;;;;;;;;;5020245;28;20854;-77
2021/09/18 07:38:52;;;;;;;10.80;9.07;;;;;;;;;;5027660;28;20317;-76
2021/09/18 07:41:17;;;;;;;10.68;8.98;;;;;;;;;;5028150;28;20190;-77
2021/09/18 07:43:43;;;;;;;11.27;8.18;;;;;;;;;;5020170;28;20193;-76
2021/09/18 07:46:09;;;;;;;8.25;7.22;;;;;;;;;;5027867;28;20224;-76
2021/09/18 07:48:34;;;;;;;9.95;7.53;;;;;;;;;;5019256;28;20324;-76
2021/09/18 07:51:00;;;;;;;9.80;7.72;;;;;;;;;;5028732;28;20521;-77
2021/09/18 07:53:27;;;;;;;7.35;6.60;;;;;;;;;;5022632;28;20197;-77
2021/09/18 07:55:52;;;;;;;8.90;6.45;;;;;;;;;;5031325;28;20193;-77
2021/09/18 07:58:18;;;;;;;8.93;6.57;;;;;;;;;;5023293;28;20669;-77
2021/09/18 08:00:45;;;;;;;7.25;6.53;;;;;;;;;;5032249;28;20562;-77
2021/09/18 08:03:11;;;;;;;8.38;5.85;;;;;;;;;;5017538;28;20190;-77
2021/09/18 08:05:37;;;;;;;8.68;5.95;;;;;;;;;;5030436;28;20185;-77
2021/09/18 08:08:03;;;;;;;10.82;5.50;;;;;;;;;;5025973;28;20243;-77
2021/09/18 08:10:29;;;;;;;6.60;5.43;;;;;;;;;;5032981;28;20281;-77
2021/09/18 08:12:54;;;;;;;7.22;5.28;;;;;;;;;;5033814;28;20293;-76
2021/09/18 08:15:20;;;;;;;8.35;5.82;;;;;;;;;;5024991;28;20277;-76
2021/09/18 08:17:46;;;;;;;8.10;4.47;;;;;;;;;;5031231;28;20276;-76
2021/09/18 08:20:14;;;;;;;6.43;4.70;;;;;;;;;;5021916;28;20201;-76
2021/09/18 08:22:40;;;;;;;6.65;4.47;;;;;;;;;;5029365;28;20181;-77
2021/09/18 08:25:07;;;;;;;7.10;4.85;;;;;;;;;;5024181;28;20695;-77
2021/09/18 08:27:34;;;;;;;5.57;4.47;;;;;;;;;;5031484;28;20194;-78
2021/09/18 08:30:00;;;;;;;7.65;4.93;;;;;;;;;;5021185;28;20235;-77
2021/09/18 08:32:25;;;;;;;8.10;4.63;;;;;;;;;;5027692;28;20905;-77
2021/09/18 08:34:50;;;;;;;5.13;4.65;;;;;;;;;;5022953;28;20551;-77
2021/09/18 08:37:17;;;;;;;6.50;4.68;;;;;;;;;;5027510;28;20189;-76
2021/09/18 08:39:42;;;;;;;7.32;4.50;;;;;;;;;;5021445;28;20205;-76
2021/09/18 08:42:09;;;;;;;6.13;4.32;;;;;;;;;;5031952;28;20182;-77
2021/09/18 08:44:35;;;;;;;8.77;4.75;;;;;;;;;;5029026;28;20190;-76
2021/09/18 08:47:01;;;;;;;9.45;5.47;;;;;;;;;;5028970;28;20549;-77
2021/09/18 08:49:28;;;;;;;9.35;5.05;;;;;;;;;;5029236;28;20528;-77
2021/09/18 08:51:54;;;;;;;8.35;6.03;;;;;;;;;;5024137;28;20217;-78
2021/09/18 08:54:20;;;;;;;9.77;6.78;;;;;;;;;;5032412;28;20189;-77
2021/09/18 08:56:45;;;;;;;12.50;5.82;;;;;;;;;;5015861;28;20231;-76
2021/09/18 08:59:11;;;;;;;7.53;5.85;;;;;;;;;;5025293;28;20241;-77
2021/09/18 09:01:36;;;;;;;9.35;6.43;;;;;;;;;;5013853;28;20403;-77
2021/09/18 09:04:04;;;;;;;9.32;5.40;;;;;;;;;;5023643;28;20209;-76
2021/09/18 09:06:51;;;;;;;7.47;5.88;;;;;;;;;;5013103;28;20642;-76
2021/09/18 09:09:16;;;;;;;9.88;5.93;;;;;;;;;;5023153;28;20218;-76
2021/09/18 09:11:51;;;;;;;7.97;5.22;;;;;;;;;;5019370;28;20222;-76
2021/09/18 09:14:17;;;;;;;8.73;5.38;;;;;;;;;;5028456;28;20193;-76
2021/09/18 09:17:05;;;;;;;7.80;4.90;;;;;;;;;;5017623;28;20581;-77
2021/09/18 09:19:39;;;;;;;5.45;4.25;;;;;;;;;;5030968;28;20197;-78
2021/09/18 09:22:05;;;;;;;5.85;3.95;;;;;;;;;;5024572;28;20182;-77
2021/09/18 09:24:30;;;;;;;5.55;3.65;;;;;;;;;;5031118;28;20188;-76
2021/09/18 09:27:11;;;;;;;5.63;3.67;;;;;;;;;;5028852;28;20197;-77
2021/09/18 09:29:40;;;;;;;4.20;3.05;;;;;;;;;;5032983;28;20657;-77
2021/09/18 09:32:29;;;;;;;7.45;3.55;;;;;;;;;;5031597;28;20209;-77
2021/09/18 09:34:56;;;;;;;5.60;3.25;;;;;;;;;;5028052;28;20629;-77
2021/09/18 09:37:23;;;;;;;7.03;3.10;;;;;;;;;;5031280;28;20193;-78
2021/09/18 09:39:53;;;;;;;4.90;3.05;;;;;;;;;;5035319;28;20201;-78
2021/09/18 09:42:48;;;;;;;7.15;3.15;;;;;;;;;;5039076;28;20223;-77
2021/09/18 09:45:19;;;;;;;7.90;3.17;;;;;;;;;;5016872;28;20280;-77
2021/09/18 09:47:45;;;;;;;4.82;3.50;;;;;;;;;;5034341;28;20194;-78
2021/09/18 09:50:13;;;;;;;8.55;3.28;;;;;;;;;;5034413;28;20190;-78
2021/09/18 09:52:42;;;;;;;4.40;3.40;;;;;;;;;;5032991;28;20285;-77
2021/09/18 09:55:10;;;;;;;5.13;3.80;;;;;;;;;;5022867;28;20185;-77
2021/09/18 09:57:36;;;;;;;6.78;3.78;;;;;;;;;;5029302;28;20250;-77
2021/09/18 10:00:06;;;;;;;5.80;3.67;;;;;;;;;;5021483;28;20233;-77
2021/09/18 10:02:34;;;;;;;6.03;3.20;;;;;;;;;;5033223;28;20513;-78
2021/09/18 10:04:59;;;;;;;5.05;3.08;;;;;;;;;;5021021;28;20682;-76
2021/09/18 10:07:25;;;;;;;5.20;2.85;;;;;;;;;;5024783;28;20194;-77
2021/09/18 10:09:51;;;;;;;6.43;2.75;;;;;;;;;;5024145;28;20216;-78
2021/09/18 10:12:16;;;;;;;5.60;3.00;;;;;;;;;;5035479;28;20213;-78
2021/09/18 10:14:51;;;;;;;4.25;3.00;;;;;;;;;;5023071;28;20202;-78
2021/09/18 10:17:17;;;;;;;4.30;3.13;;;;;;;;;;5032726;28;20648;-78
2021/09/18 10:20:00;;;;;;;4.53;3.70;;;;;;;;;;5040355;28;20277;-78
2021/09/18 10:25:16;;;;;;;8.60;3.80;;;;;;;;;;5027362;28;20208;-79
2021/09/18 10:28:00;;;;;;;4.28;2.72;;;;;;;;;;5040470;28;20333;-77
2021/09/18 10:30:29;;;;;;;4.70;3.03;;;;;;;;;;5031949;28;20198;-78
2021/09/18 10:32:54;;;;;;;5.03;3.72;;;;;;;;;;5044845;28;20231;-78
2021/09/18 10:35:20;;;;;;;4.45;2.75;;;;;;;;;;5040853;28;20193;-78
2021/09/18 10:37:45;;;;;;;5.55;2.97;;;;;;;;;;5036966;28;20196;-77
2021/09/18 10:40:13;;;;;;;4.32;2.58;;;;;;;;;;5041996;28;20186;-77
2021/09/18 10:42:43;;;;;;;5.57;2.92;;;;;;;;;;5029449;28;20209;-77
2021/09/18 10:45:11;;;;;;;2.78;2.13;;;;;;;;;;5026352;28;20196;-74
2021/09/18 10:47:41;;;;;;;5.15;3.65;;;;;;;;;;5022158;28;20198;-77
2021/09/18 10:50:26;;;;;;;4.57;3.30;;;;;;;;;;5027949;28;20223;-77
2021/09/18 10:53:24;;;;;;;5.70;2.38;;;;;;;;;;5025399;28;20205;-77
2021/09/18 10:55:51;;;;;;;4.90;2.30;;;;;;;;;;5029619;28;20292;-77
2021/09/18 10:58:16;;;;;;;5.07;2.55;;;;;;;;;;5021852;28;20731;-77
2021/09/18 11:00:50;;;;;;;4.55;2.33;;;;;;;;;;5037502;28;20194;-78
2021/09/18 11:03:32;;;;;;;5.68;2.70;;;;;;;;;;5024655;28;20208;-78
2021/09/18 11:05:58;;;;;;;5.82;2.90;;;;;;;;;;5031323;28;20591;-78
2021/09/18 11:08:26;;;;;;;6.20;3.35;;;;;;;;;;5024120;28;20189;-77
2021/09/18 11:11:00;;;;;;;7.03;3.80;;;;;;;;;;5028951;28;20221;-77
2021/09/18 11:13:41;;;;;;;4.80;3.20;;;;;;;;;;5020922;28;20218;-77
2021/09/18 11:16:19;;;;;;;7.20;3.30;;;;;;;;;;5031953;28;20322;-76
2021/09/18 11:18:50;;;;;;;4.97;3.45;;;;;;;;;;5027722;28;20189;-77
2021/09/18 11:21:17;;;;;;;5.47;4.20;;;;;;;;;;5028720;28;20637;-74
2021/09/18 11:24:02;;;;;;;7.25;4.20;;;;;;;;;;5027121;28;20186;-78
2021/09/18 11:26:48;;;;;;;6.75;5.00;;;;;;;;;;5035095;28;20265;-78
2021/09/18 11:29:33;;;;;;;8.48;6.10;;;;;;;;;;5027158;28;20221;-78
2021/09/18 11:32:13;;;;;;;10.60;6.88;;;;;;;;;;5035860;28;20205;-78
2021/09/18 11:34:48;;;;;;;15.40;8.18;;;;;;;;;;4330221;28;10000795;-78
2021/09/18 11:37:28;;;;;;;13.70;8.00;;;;;;;;;;5036543;28;20211;-77
2021/09/18 11:39:56;;;;;;;8.85;6.88;;;;;;;;;;5020758;28;20685;-77
2021/09/18 11:42:41;;;;;;;8.80;6.00;;;;;;;;;;5028565;28;20182;-77
2021/09/18 11:45:15;;;;;;;7.25;5.78;;;;;;;;;;5019903;28;20206;-76
2021/09/18 11:47:57;;;;;;;8.98;6.13;;;;;;;;;;5032792;28;20196;-77
2021/09/18 11:50:24;;;;;;;8.85;6.70;;;;;;;;;;5021086;28;20193;-77
2021/09/18 11:52:51;;;;;;;8.80;6.30;;;;;;;;;;5038557;28;20677;-77
2021/09/18 11:55:30;;;;;;;9.35;6.78;;;;;;;;;;5025830;28;20201;-78
2021/09/18 11:58:04;;;;;;;9.30;6.82;;;;;;;;;;5033100;28;20350;-77
2021/09/18 12:00:30;;;;;;;7.78;6.28;;;;;;;;;;5028547;28;20310;-77
2021/09/18 12:02:59;;;;;;;8.95;6.57;;;;;;;;;;5032344;28;20190;-78
2021/09/18 12:05:25;;;;;;;8.05;6.20;;;;;;;;;;5009620;28;20186;-76
2021/09/18 12:07:51;;;;;;;5.85;4.90;;;;;;;;;;5025484;28;20201;-76
2021/09/18 12:10:19;;;;;;;8.63;6.15;;;;;;;;;;5027167;28;20312;-77
2021/09/18 12:12:48;;;;;;;7.03;5.13;;;;;;;;;;5022570;28;20534;-76
2021/09/18 12:15:15;;;;;;;9.05;6.30;;;;;;;;;;5032220;28;20263;-78
2021/09/18 12:17:41;;;;;;;9.35;6.80;;;;;;;;;;5020361;28;21146;-76
2021/09/18 12:20:10;;;;;;;8.10;6.32;;;;;;;;;;5028539;28;20311;-76
2021/09/18 12:22:35;;;;;;;9.82;6.95;;;;;;;;;;5017976;28;20594;-77
2021/09/18 12:25:01;;;;;;;9.18;6.95;;;;;;;;;;5022144;28;20193;-76
2021/09/18 12:27:36;;;;;;;13.85;7.72;;;;;;;;;;5015028;28;20252;-74
2021/09/18 12:30:09;;;;;;;10.75;6.43;;;;;;;;;;5025703;28;20607;-74
2021/09/18 12:32:36;;;;;;;7.95;6.40;;;;;;;;;;5015056;28;20209;-77
2021/09/18 12:35:05;;;;;;;9.13;6.47;;;;;;;;;;5025817;28;20285;-77
2021/09/18 12:37:34;;;;;;;7.13;6.00;;;;;;;;;;5014802;28;20186;-77
2021/09/18 12:40:20;;;;;;;9.00;6.15;;;;;;;;;;5024749;28;20495;-76
2021/09/18 12:43:04;;;;;;;8.60;7.63;;;;;;;;;;5017952;28;21528;-77
2021/09/18 12:45:34;;;;;;;9.90;6.68;;;;;;;;;;5021119;28;20662;-77
2021/09/18 12:48:17;;;;;;;6.78;5.70;;;;;;;;;;5016160;28;20189;-77
2021/09/18 12:50:58;;;;;;;9.23;5.57;;;;;;;;;;5021214;28;20185;-75
2021/09/18 12:53:29;;;;;;;9.45;5.88;;;;;;;;;;5017452;28;20330;-75
2021/09/18 12:56:27;;;;;;;5.60;4.88;;;;;;;;;;5025657;28;20186;-77
2021/09/18 12:58:59;;;;;;;7.65;5.20;;;;;;;;;;5011164;28;20278;-75
2021/09/18 13:01:46;;;;;;;8.45;5.50;;;;;;;;;;5025889;28;20222;-75
2021/09/18 13:04:19;;;;;;;6.20;4.43;;;;;;;;;;5015943;28;20197;-76
2021/09/18 13:07:08;;;;;;;6.35;4.57;;;;;;;;;;5021917;28;20201;-77
2021/09/18 13:09:39;;;;;;;7.07;4.70;;;;;;;;;;5015972;28;20281;-76
2021/09/18 13:12:23;;;;;;;8.10;4.75;;;;;;;;;;5025600;28;20677;-76
2021/09/18 13:14:54;;;;;;;6.95;4.35;;;;;;;;;;5016432;28;20201;-76
2021/09/18 13:17:27;;;;;;;7.03;4.88;;;;;;;;;;5024498;28;20189;-76
2021/09/18 13:20:02;;;;;;;6.90;4.88;;;;;;;;;;5016489;28;20749;-77
2021/09/18 13:22:31;;;;;;;5.70;4.18;;;;;;;;;;5023603;28;20276;-76
2021/09/18 13:24:57;;;;;;;7.70;4.38;;;;;;;;;;5017870;28;20644;-75
2021/09/18 13:27:25;;;;;;;6.53;4.03;;;;;;;;;;5022551;28;20186;-76
2021/09/18 13:29:51;;;;;;;6.78;4.32;;;;;;;;;;5019757;28;20182;-76
2021/09/18 13:32:18;;;;;;;5.60;4.28;;;;;;;;;;5024840;28;20629;-76
2021/09/18 13:34:43;;;;;;;7.32;4.75;;;;;;;;;;5026649;28;20197;-76
2021/09/18 13:37:08;;;;;;;6.65;4.07;;;;;;;;;;5012614;28;20189;-76
2021/09/18 13:39:34;;;;;;;4.78;3.50;;;;;;;;;;5024450;28;20197;-75
2021/09/18 13:42:00;;;;;;;7.15;3.85;;;;;;;;;;5016758;28;20189;-76
2021/09/18 13:44:26;;;;;;;3.97;3.25;;;;;;;;;;5023026;28;20269;-76
2021/09/18 13:46:51;;;;;;;8.88;4.07;;;;;;;;;;5013134;28;20194;-76
2021/09/18 13:49:16;;;;;;;6.70;4.55;;;;;;;;;;5025975;28;20633;-77
2021/09/18 13:51:42;;;;;;;5.65;3.92;;;;;;;;;;5019738;28;20355;-76
2021/09/18 13:54:07;;;;;;;8.65;4.72;;;;;;;;;;5025883;28;20581;-76
2021/09/18 13:56:33;;;;;;;6.05;5.03;;;;;;;;;;5018496;28;20619;-74
2021/09/18 13:58:58;;;;;;;7.05;4.90;;;;;;;;;;5025944;28;20201;-76
2021/09/18 14:01:24;;;;;;;5.70;4.25;;;;;;;;;;5028470;28;20241;-75
2021/09/18 14:03:49;;;;;;;8.30;4.50;;;;;;;;;;5022174;28;20186;-77
2021/09/18 14:06:14;;;;;;;4.65;3.80;;;;;;;;;;5028620;28;21498;-76
2021/09/18 14:08:41;;;;;;;5.70;3.60;;;;;;;;;;5019924;28;20194;-77
2021/09/18 14:11:08;;;;;;;4.28;3.38;;;;;;;;;;5025262;28;20185;-78
2021/09/18 14:13:34;;;;;;;5.57;3.65;;;;;;;;;;5019542;28;20516;-77
2021/09/18 14:15:59;;;;;;;7.60;3.30;;;;;;;;;;5031310;28;20196;-77
2021/09/18 14:18:25;;;;;;;4.55;2.88;;;;;;;;;;5017397;28;20242;-77
2021/09/18 14:20:50;;;;;;;4.78;3.35;;;;;;;;;;5031692;28;20189;-77
2021/09/18 14:23:16;;;;;;;3.63;2.88;;;;;;;;;;5018706;28;20194;-76
2021/09/18 14:25:41;;;;;;;6.13;3.53;;;;;;;;;;5029727;28;20173;-76
2021/09/18 14:28:08;;;;;;;6.45;3.88;;;;;;;;;;5018925;28;21013;-76
2021/09/18 14:30:34;;;;;;;7.35;2.85;;;;;;;;;;5027840;28;20196;-76
2021/09/18 14:33:00;;;;;;;5.93;3.38;;;;;;;;;;5024921;28;20213;-76
2021/09/18 14:35:25;;;;;;;4.63;3.28;;;;;;;;;;5018320;28;20212;-78